sensor_id;sensor_type;location;lat;lon;timestamp;temperature;humidity
7234;DHT22;3658;47.992;10.158;2023-04-03T00:02:03;20.90;38.70
7234;DHT22;3658;47.992;10.158;2023-04-03T00:04:29;20.90;38.60
7234;DHT22;3658;47.992;10.158;2023-04-03T00:06:57;20.90;38.60
7234;DHT22;3658;47.992;10.158;2023-04-03T00:09:24;20.90;38.70
7234;DHT22;3658;47.992;10.158;2023-04-03T00:11:52;20.80;38.60
7234;DHT22;3658;47.992;10.158;2023-04-03T00:14:19;20.90;38.60
7234;DHT22;3658;47.992;10.158;2023-04-03T00:16:46;20.90;38.60
7234;DHT22;3658;47.992;10.158;2023-04-03T00:19:13;20.90;38.60
7234;DHT22;3658;47.992;10.158;2023-04-03T00:21:40;20.90;38.60
7234;DHT22;3658;47.992;10.158;2023-04-03T00:24:07;20.90;38.60
7234;DHT22;3658;47.992;10.158;2023-04-03T00:26:34;20.90;39.20
7234;DHT22;3658;47.992;10.158;2023-04-03T00:29:02;20.90;38.60
7234;DHT22;3658;47.992;10.158;2023-04-03T00:31:29;20.90;38.60
7234;DHT22;3658;47.992;10.158;2023-04-03T00:33:56;20.90;38.50
7234;DHT22;3658;47.992;10.158;2023-04-03T00:36:23;20.90;38.50
7234;DHT22;3658;47.992;10.158;2023-04-03T00:38:50;20.90;38.50
7234;DHT22;3658;47.992;10.158;2023-04-03T00:41:17;20.90;38.40
7234;DHT22;3658;47.992;10.158;2023-04-03T00:43:44;20.90;38.50
7234;DHT22;3658;47.992;10.158;2023-04-03T00:46:12;20.90;38.40
7234;DHT22;3658;47.992;10.158;2023-04-03T00:48:41;20.80;38.40
7234;DHT22;3658;47.992;10.158;2023-04-03T00:51:11;20.80;38.30
7234;DHT22;3658;47.992;10.158;2023-04-03T00:53:43;20.90;38.40
7234;DHT22;3658;47.992;10.158;2023-04-03T00:56:13;20.90;38.50
7234;DHT22;3658;47.992;10.158;2023-04-03T00:58:45;20.90;38.30
7234;DHT22;3658;47.992;10.158;2023-04-03T01:01:19;20.80;38.30
7234;DHT22;3658;47.992;10.158;2023-04-03T01:03:47;20.80;38.30
7234;DHT22;3658;47.992;10.158;2023-04-03T01:06:16;20.80;38.20
7234;DHT22;3658;47.992;10.158;2023-04-03T01:08:44;20.80;38.20
7234;DHT22;3658;47.992;10.158;2023-04-03T01:11:12;20.80;38.20
7234;DHT22;3658;47.992;10.158;2023-04-03T01:13:39;20.80;38.20
7234;DHT22;3658;47.992;10.158;2023-04-03T01:16:07;20.80;38.20
7234;DHT22;3658;47.992;10.158;2023-04-03T01:18:38;20.80;38.10
7234;DHT22;3658;47.992;10.158;2023-04-03T01:21:36;20.80;38.10
7234;DHT22;3658;47.992;10.158;2023-04-03T01:24:27;20.80;38.10
7234;DHT22;3658;47.992;10.158;2023-04-03T01:26:57;20.80;38.00
7234;DHT22;3658;47.992;10.158;2023-04-03T01:29:24;20.80;38.00
7234;DHT22;3658;47.992;10.158;2023-04-03T01:31:54;20.80;38.10
7234;DHT22;3658;47.992;10.158;2023-04-03T01:34:21;20.80;38.10
7234;DHT22;3658;47.992;10.158;2023-04-03T01:36:48;20.80;38.10
7234;DHT22;3658;47.992;10.158;2023-04-03T01:39:16;20.80;38.10
7234;DHT22;3658;47.992;10.158;2023-04-03T01:41:43;20.80;38.10
7234;DHT22;3658;47.992;10.158;2023-04-03T01:44:10;20.80;38.10
7234;DHT22;3658;47.992;10.158;2023-04-03T01:46:37;20.80;38.10
7234;DHT22;3658;47.992;10.158;2023-04-03T01:49:06;20.80;38.10
7234;DHT22;3658;47.992;10.158;2023-04-03T01:51:33;20.80;38.00
7234;DHT22;3658;47.992;10.158;2023-04-03T01:54:00;20.80;38.00
7234;DHT22;3658;47.992;10.158;2023-04-03T01:56:27;20.80;38.00
7234;DHT22;3658;47.992;10.158;2023-04-03T01:58:55;20.80;38.00
7234;DHT22;3658;47.992;10.158;2023-04-03T02:01:22;20.80;38.00
7234;DHT22;3658;47.992;10.158;2023-04-03T02:03:49;20.80;37.90
7234;DHT22;3658;47.992;10.158;2023-04-03T02:06:17;20.80;37.90
7234;DHT22;3658;47.992;10.158;2023-04-03T02:08:44;20.80;37.90
7234;DHT22;3658;47.992;10.158;2023-04-03T02:11:11;20.80;37.90
7234;DHT22;3658;47.992;10.158;2023-04-03T02:13:38;20.80;37.90
7234;DHT22;3658;47.992;10.158;2023-04-03T02:16:09;20.80;37.80
7234;DHT22;3658;47.992;10.158;2023-04-03T02:18:37;20.80;37.80
7234;DHT22;3658;47.992;10.158;2023-04-03T02:21:04;20.80;37.90
7234;DHT22;3658;47.992;10.158;2023-04-03T02:23:32;20.80;37.80
7234;DHT22;3658;47.992;10.158;2023-04-03T02:26:06;20.80;37.80
7234;DHT22;3658;47.992;10.158;2023-04-03T02:28:34;20.70;37.70
7234;DHT22;3658;47.992;10.158;2023-04-03T02:31:01;20.80;37.80
7234;DHT22;3658;47.992;10.158;2023-04-03T02:33:28;20.70;37.70
7234;DHT22;3658;47.992;10.158;2023-04-03T02:35:56;20.70;37.70
7234;DHT22;3658;47.992;10.158;2023-04-03T02:38:24;20.70;37.70
7234;DHT22;3658;47.992;10.158;2023-04-03T02:40:52;20.70;37.70
7234;DHT22;3658;47.992;10.158;2023-04-03T02:43:19;20.70;37.70
7234;DHT22;3658;47.992;10.158;2023-04-03T02:45:46;20.70;37.70
7234;DHT22;3658;47.992;10.158;2023-04-03T02:48:13;20.70;37.70
7234;DHT22;3658;47.992;10.158;2023-04-03T02:50:42;20.70;37.70
7234;DHT22;3658;47.992;10.158;2023-04-03T02:53:09;20.70;37.70
7234;DHT22;3658;47.992;10.158;2023-04-03T02:55:36;20.70;37.70
7234;DHT22;3658;47.992;10.158;2023-04-03T02:58:04;20.70;37.60
7234;DHT22;3658;47.992;10.158;2023-04-03T03:00:31;20.70;37.80
7234;DHT22;3658;47.992;10.158;2023-04-03T03:02:59;20.70;38.40
7234;DHT22;3658;47.992;10.158;2023-04-03T03:05:26;20.70;39.00
7234;DHT22;3658;47.992;10.158;2023-04-03T03:07:53;20.60;39.40
7234;DHT22;3658;47.992;10.158;2023-04-03T03:10:21;20.60;39.70
7234;DHT22;3658;47.992;10.158;2023-04-03T03:12:49;20.60;39.90
7234;DHT22;3658;47.992;10.158;2023-04-03T03:15:18;20.60;40.00
7234;DHT22;3658;47.992;10.158;2023-04-03T03:17:45;20.60;40.10
7234;DHT22;3658;47.992;10.158;2023-04-03T03:20:12;20.60;40.30
7234;DHT22;3658;47.992;10.158;2023-04-03T03:22:41;20.60;40.30
7234;DHT22;3658;47.992;10.158;2023-04-03T03:25:08;20.60;40.40
7234;DHT22;3658;47.992;10.158;2023-04-03T03:27:35;20.60;40.40
7234;DHT22;3658;47.992;10.158;2023-04-03T03:30:03;20.60;40.50
7234;DHT22;3658;47.992;10.158;2023-04-03T03:32:31;20.60;40.40
7234;DHT22;3658;47.992;10.158;2023-04-03T03:34:58;20.60;40.50
7234;DHT22;3658;47.992;10.158;2023-04-03T03:37:25;20.60;40.40
7234;DHT22;3658;47.992;10.158;2023-04-03T03:39:52;20.60;40.30
7234;DHT22;3658;47.992;10.158;2023-04-03T03:42:19;20.60;40.00
7234;DHT22;3658;47.992;10.158;2023-04-03T03:44:46;20.50;39.80
7234;DHT22;3658;47.992;10.158;2023-04-03T03:47:13;20.50;39.70
7234;DHT22;3658;47.992;10.158;2023-04-03T03:49:41;20.50;39.60
7234;DHT22;3658;47.992;10.158;2023-04-03T03:52:08;20.60;39.50
7234;DHT22;3658;47.992;10.158;2023-04-03T03:54:36;20.50;39.30
7234;DHT22;3658;47.992;10.158;2023-04-03T03:57:03;20.50;39.30
7234;DHT22;3658;47.992;10.158;2023-04-03T03:59:30;20.50;39.20
7234;DHT22;3658;47.992;10.158;2023-04-03T04:01:57;20.50;39.10
7234;DHT22;3658;47.992;10.158;2023-04-03T04:04:24;20.50;39.00
7234;DHT22;3658;47.992;10.158;2023-04-03T04:06:52;20.50;39.00
7234;DHT22;3658;47.992;10.158;2023-04-03T04:09:19;20.50;38.90
7234;DHT22;3658;47.992;10.158;2023-04-03T04:11:47;20.50;38.80
7234;DHT22;3658;47.992;10.158;2023-04-03T04:14:14;20.50;38.70
7234;DHT22;3658;47.992;10.158;2023-04-03T04:16:41;20.50;38.60
7234;DHT22;3658;47.992;10.158;2023-04-03T04:19:08;20.50;38.50
7234;DHT22;3658;47.992;10.158;2023-04-03T04:21:38;20.50;38.60
7234;DHT22;3658;47.992;10.158;2023-04-03T04:24:07;20.50;38.50
7234;DHT22;3658;47.992;10.158;2023-04-03T04:26:34;20.50;38.50
7234;DHT22;3658;47.992;10.158;2023-04-03T04:29:01;20.50;38.60
7234;DHT22;3658;47.992;10.158;2023-04-03T04:31:28;20.50;38.80
7234;DHT22;3658;47.992;10.158;2023-04-03T04:33:55;20.50;39.20
7234;DHT22;3658;47.992;10.158;2023-04-03T04:36:22;20.50;39.40
7234;DHT22;3658;47.992;10.158;2023-04-03T04:38:49;20.50;39.60
7234;DHT22;3658;47.992;10.158;2023-04-03T04:41:19;20.50;39.70
7234;DHT22;3658;47.992;10.158;2023-04-03T04:43:47;20.50;39.70
7234;DHT22;3658;47.992;10.158;2023-04-03T04:46:15;20.50;39.80
7234;DHT22;3658;47.992;10.158;2023-04-03T04:48:41;20.50;39.90
7234;DHT22;3658;47.992;10.158;2023-04-03T04:51:09;20.50;40.00
7234;DHT22;3658;47.992;10.158;2023-04-03T04:53:36;20.50;39.90
7234;DHT22;3658;47.992;10.158;2023-04-03T04:56:03;20.50;39.90
7234;DHT22;3658;47.992;10.158;2023-04-03T04:58:31;20.50;39.90
7234;DHT22;3658;47.992;10.158;2023-04-03T05:00:59;20.50;40.00
7234;DHT22;3658;47.992;10.158;2023-04-03T05:03:27;20.50;40.00
7234;DHT22;3658;47.992;10.158;2023-04-03T05:05:54;20.50;40.00
7234;DHT22;3658;47.992;10.158;2023-04-03T05:08:21;20.50;40.00
7234;DHT22;3658;47.992;10.158;2023-04-03T05:10:48;20.50;40.10
7234;DHT22;3658;47.992;10.158;2023-04-03T05:13:15;20.50;40.10
7234;DHT22;3658;47.992;10.158;2023-04-03T05:15:43;20.50;40.10
7234;DHT22;3658;47.992;10.158;2023-04-03T05:18:10;20.50;40.20
7234;DHT22;3658;47.992;10.158;2023-04-03T05:20:37;20.50;40.20
7234;DHT22;3658;47.992;10.158;2023-04-03T05:23:04;20.50;40.20
7234;DHT22;3658;47.992;10.158;2023-04-03T05:25:31;20.50;40.10
7234;DHT22;3658;47.992;10.158;2023-04-03T05:27:58;20.50;40.10
7234;DHT22;3658;47.992;10.158;2023-04-03T05:30:25;20.40;40.10
7234;DHT22;3658;47.992;10.158;2023-04-03T05:32:54;20.50;40.30
7234;DHT22;3658;47.992;10.158;2023-04-03T05:35:21;20.40;40.20
7234;DHT22;3658;47.992;10.158;2023-04-03T05:37:48;20.40;40.20
7234;DHT22;3658;47.992;10.158;2023-04-03T05:40:17;20.40;40.20
7234;DHT22;3658;47.992;10.158;2023-04-03T05:42:44;20.40;40.20
7234;DHT22;3658;47.992;10.158;2023-04-03T05:45:11;20.40;40.10
7234;DHT22;3658;47.992;10.158;2023-04-03T05:47:38;20.40;40.10
7234;DHT22;3658;47.992;10.158;2023-04-03T05:50:08;20.40;40.10
7234;DHT22;3658;47.992;10.158;2023-04-03T05:52:37;20.40;40.10
7234;DHT22;3658;47.992;10.158;2023-04-03T05:55:05;20.40;40.10
7234;DHT22;3658;47.992;10.158;2023-04-03T05:57:32;20.40;40.10
7234;DHT22;3658;47.992;10.158;2023-04-03T05:59:59;20.40;40.10
7234;DHT22;3658;47.992;10.158;2023-04-03T06:02:26;20.40;40.10
7234;DHT22;3658;47.992;10.158;2023-04-03T06:04:53;20.30;40.00
7234;DHT22;3658;47.992;10.158;2023-04-03T06:07:23;20.30;40.00
7234;DHT22;3658;47.992;10.158;2023-04-03T06:09:54;20.30;40.00
7234;DHT22;3658;47.992;10.158;2023-04-03T06:12:22;20.30;40.00
7234;DHT22;3658;47.992;10.158;2023-04-03T06:14:49;20.30;40.00
7234;DHT22;3658;47.992;10.158;2023-04-03T06:17:16;20.30;40.00
7234;DHT22;3658;47.992;10.158;2023-04-03T06:19:44;20.30;40.00
7234;DHT22;3658;47.992;10.158;2023-04-03T06:22:11;20.30;40.00
7234;DHT22;3658;47.992;10.158;2023-04-03T06:24:41;20.30;39.90
7234;DHT22;3658;47.992;10.158;2023-04-03T06:27:09;20.30;40.00
7234;DHT22;3658;47.992;10.158;2023-04-03T06:29:37;20.30;39.90
7234;DHT22;3658;47.992;10.158;2023-04-03T06:32:05;20.30;39.80
7234;DHT22;3658;47.992;10.158;2023-04-03T06:34:32;20.30;39.80
7234;DHT22;3658;47.992;10.158;2023-04-03T06:36:59;20.30;39.80
7234;DHT22;3658;47.992;10.158;2023-04-03T06:39:26;20.30;39.80
7234;DHT22;3658;47.992;10.158;2023-04-03T06:41:55;20.30;39.80
7234;DHT22;3658;47.992;10.158;2023-04-03T06:44:21;20.30;39.80
7234;DHT22;3658;47.992;10.158;2023-04-03T06:46:48;20.30;39.80
7234;DHT22;3658;47.992;10.158;2023-04-03T06:49:17;20.30;39.80
7234;DHT22;3658;47.992;10.158;2023-04-03T06:51:44;20.30;39.80
7234;DHT22;3658;47.992;10.158;2023-04-03T06:54:11;20.20;39.70
7234;DHT22;3658;47.992;10.158;2023-04-03T06:56:38;20.30;39.70
7234;DHT22;3658;47.992;10.158;2023-04-03T06:59:06;20.30;39.70
7234;DHT22;3658;47.992;10.158;2023-04-03T07:01:34;20.20;39.60
7234;DHT22;3658;47.992;10.158;2023-04-03T07:04:01;20.20;39.60
7234;DHT22;3658;47.992;10.158;2023-04-03T07:06:28;20.20;39.60
7234;DHT22;3658;47.992;10.158;2023-04-03T07:08:56;20.20;39.50
7234;DHT22;3658;47.992;10.158;2023-04-03T07:11:23;20.20;39.40
7234;DHT22;3658;47.992;10.158;2023-04-03T07:13:52;20.20;39.40
7234;DHT22;3658;47.992;10.158;2023-04-03T07:16:20;20.20;39.40
7234;DHT22;3658;47.992;10.158;2023-04-03T07:18:47;20.20;39.40
7234;DHT22;3658;47.992;10.158;2023-04-03T07:21:14;20.20;39.50
7234;DHT22;3658;47.992;10.158;2023-04-03T07:23:41;20.20;39.50
7234;DHT22;3658;47.992;10.158;2023-04-03T07:26:09;20.20;39.50
7234;DHT22;3658;47.992;10.158;2023-04-03T07:28:36;20.20;39.40
7234;DHT22;3658;47.992;10.158;2023-04-03T07:31:06;20.20;39.40
7234;DHT22;3658;47.992;10.158;2023-04-03T07:33:36;20.20;39.40
7234;DHT22;3658;47.992;10.158;2023-04-03T07:36:03;20.10;39.40
7234;DHT22;3658;47.992;10.158;2023-04-03T07:38:32;20.10;39.40
7234;DHT22;3658;47.992;10.158;2023-04-03T07:40:59;20.20;39.40
7234;DHT22;3658;47.992;10.158;2023-04-03T07:43:26;20.10;39.40
7234;DHT22;3658;47.992;10.158;2023-04-03T07:45:53;20.10;39.30
7234;DHT22;3658;47.992;10.158;2023-04-03T07:48:21;20.10;39.30
7234;DHT22;3658;47.992;10.158;2023-04-03T07:50:51;20.10;39.30
7234;DHT22;3658;47.992;10.158;2023-04-03T07:53:18;20.10;39.20
7234;DHT22;3658;47.992;10.158;2023-04-03T07:55:46;20.10;39.20
7234;DHT22;3658;47.992;10.158;2023-04-03T07:58:16;20.10;39.10
7234;DHT22;3658;47.992;10.158;2023-04-03T08:00:43;20.10;39.10
7234;DHT22;3658;47.992;10.158;2023-04-03T08:03:11;20.10;39.20
7234;DHT22;3658;47.992;10.158;2023-04-03T08:05:38;20.10;39.10
7234;DHT22;3658;47.992;10.158;2023-04-03T08:08:08;20.10;39.10
7234;DHT22;3658;47.992;10.158;2023-04-03T08:10:35;20.10;39.20
7234;DHT22;3658;47.992;10.158;2023-04-03T08:13:03;20.10;39.20
7234;DHT22;3658;47.992;10.158;2023-04-03T08:15:31;20.10;39.30
7234;DHT22;3658;47.992;10.158;2023-04-03T08:17:58;20.00;38.70
7234;DHT22;3658;47.992;10.158;2023-04-03T08:20:26;19.90;37.70
7234;DHT22;3658;47.992;10.158;2023-04-03T08:22:53;19.80;35.90
7234;DHT22;3658;47.992;10.158;2023-04-03T08:25:22;19.60;35.30
7234;DHT22;3658;47.992;10.158;2023-04-03T08:27:49;19.50;33.70
7234;DHT22;3658;47.992;10.158;2023-04-03T08:30:16;19.50;32.60
7234;DHT22;3658;47.992;10.158;2023-04-03T08:32:44;19.50;32.30
7234;DHT22;3658;47.992;10.158;2023-04-03T08:35:11;19.60;32.90
7234;DHT22;3658;47.992;10.158;2023-04-03T08:37:39;19.80;33.50
7234;DHT22;3658;47.992;10.158;2023-04-03T08:40:11;19.80;33.70
7234;DHT22;3658;47.992;10.158;2023-04-03T08:42:50;19.90;34.50
7234;DHT22;3658;47.992;10.158;2023-04-03T08:45:25;20.00;34.80
7234;DHT22;3658;47.992;10.158;2023-04-03T08:48:00;20.10;35.40
7234;DHT22;3658;47.992;10.158;2023-04-03T08:50:31;20.20;35.80
7234;DHT22;3658;47.992;10.158;2023-04-03T08:53:01;20.30;36.20
7234;DHT22;3658;47.992;10.158;2023-04-03T08:55:33;20.30;36.40
7234;DHT22;3658;47.992;10.158;2023-04-03T08:58:04;20.30;36.50
7234;DHT22;3658;47.992;10.158;2023-04-03T09:00:43;20.30;36.70
7234;DHT22;3658;47.992;10.158;2023-04-03T09:03:12;20.30;37.10
7234;DHT22;3658;47.992;10.158;2023-04-03T09:05:44;20.40;37.20
7234;DHT22;3658;47.992;10.158;2023-04-03T09:08:23;20.30;37.30
7234;DHT22;3658;47.992;10.158;2023-04-03T09:10:59;20.30;37.50
7234;DHT22;3658;47.992;10.158;2023-04-03T09:13:37;20.30;37.80
7234;DHT22;3658;47.992;10.158;2023-04-03T09:16:21;20.20;37.80
7234;DHT22;3658;47.992;10.158;2023-04-03T09:18:56;20.10;37.90
7234;DHT22;3658;47.992;10.158;2023-04-03T09:21:29;20.10;38.60
7234;DHT22;3658;47.992;10.158;2023-04-03T09:24:00;20.20;38.70
7234;DHT22;3658;47.992;10.158;2023-04-03T09:26:31;20.20;38.60
7234;DHT22;3658;47.992;10.158;2023-04-03T09:29:06;20.20;38.70
7234;DHT22;3658;47.992;10.158;2023-04-03T09:31:38;20.20;38.10
7234;DHT22;3658;47.992;10.158;2023-04-03T09:34:13;20.10;37.90
7234;DHT22;3658;47.992;10.158;2023-04-03T09:36:48;20.10;38.10
7234;DHT22;3658;47.992;10.158;2023-04-03T09:39:28;20.10;38.40
7234;DHT22;3658;47.992;10.158;2023-04-03T09:42:04;20.10;39.00
7234;DHT22;3658;47.992;10.158;2023-04-03T09:44:35;20.10;39.00
7234;DHT22;3658;47.992;10.158;2023-04-03T09:47:19;20.00;39.20
7234;DHT22;3658;47.992;10.158;2023-04-03T09:49:46;20.00;39.30
7234;DHT22;3658;47.992;10.158;2023-04-03T09:52:21;20.00;39.40
7234;DHT22;3658;47.992;10.158;2023-04-03T09:54:49;20.00;39.40
7234;DHT22;3658;47.992;10.158;2023-04-03T09:57:16;20.00;39.60
7234;DHT22;3658;47.992;10.158;2023-04-03T09:59:47;20.00;39.70
7234;DHT22;3658;47.992;10.158;2023-04-03T10:02:39;20.00;39.80
7234;DHT22;3658;47.992;10.158;2023-04-03T10:05:28;20.00;39.20
7234;DHT22;3658;47.992;10.158;2023-04-03T10:08:14;19.90;39.00
7234;DHT22;3658;47.992;10.158;2023-04-03T10:11:09;20.10;39.10
7234;DHT22;3658;47.992;10.158;2023-04-03T10:13:42;20.00;39.00
7234;DHT22;3658;47.992;10.158;2023-04-03T10:16:20;20.00;38.90
7234;DHT22;3658;47.992;10.158;2023-04-03T10:18:56;19.90;38.40
7234;DHT22;3658;47.992;10.158;2023-04-03T10:21:35;19.80;37.60
7234;DHT22;3658;47.992;10.158;2023-04-03T10:24:09;19.70;37.10
7234;DHT22;3658;47.992;10.158;2023-04-03T10:26:45;19.70;36.70
7234;DHT22;3658;47.992;10.158;2023-04-03T10:32:19;19.70;36.70
7234;DHT22;3658;47.992;10.158;2023-04-03T10:34:55;19.80;37.40
7234;DHT22;3658;47.992;10.158;2023-04-03T10:37:27;19.80;37.10
7234;DHT22;3658;47.992;10.158;2023-04-03T10:39:59;19.80;37.20
7234;DHT22;3658;47.992;10.158;2023-04-03T10:42:32;19.80;37.40
7234;DHT22;3658;47.992;10.158;2023-04-03T10:45:14;19.70;37.40
7234;DHT22;3658;47.992;10.158;2023-04-03T10:47:55;19.70;37.50
7234;DHT22;3658;47.992;10.158;2023-04-03T10:50:36;19.70;37.60
7234;DHT22;3658;47.992;10.158;2023-04-03T10:53:09;19.60;37.60
7234;DHT22;3658;47.992;10.158;2023-04-03T10:55:40;19.70;37.80
7234;DHT22;3658;47.992;10.158;2023-04-03T10:58:18;19.60;37.70
7234;DHT22;3658;47.992;10.158;2023-04-03T11:00:49;19.60;37.80
7234;DHT22;3658;47.992;10.158;2023-04-03T11:03:27;19.60;37.90
7234;DHT22;3658;47.992;10.158;2023-04-03T11:05:59;19.60;38.40
7234;DHT22;3658;47.992;10.158;2023-04-03T11:08:32;19.60;38.60
7234;DHT22;3658;47.992;10.158;2023-04-03T11:11:02;19.80;38.70
7234;DHT22;3658;47.992;10.158;2023-04-03T11:13:34;19.80;38.60
7234;DHT22;3658;47.992;10.158;2023-04-03T11:16:04;19.90;38.40
7234;DHT22;3658;47.992;10.158;2023-04-03T11:18:36;19.90;38.80
7234;DHT22;3658;47.992;10.158;2023-04-03T11:21:10;19.90;39.00
7234;DHT22;3658;47.992;10.158;2023-04-03T11:23:39;19.90;39.10
7234;DHT22;3658;47.992;10.158;2023-04-03T11:26:10;20.00;39.20
7234;DHT22;3658;47.992;10.158;2023-04-03T11:28:38;20.00;39.30
7234;DHT22;3658;47.992;10.158;2023-04-03T11:34:03;20.00;39.40
7234;DHT22;3658;47.992;10.158;2023-04-03T11:36:34;20.00;39.50
7234;DHT22;3658;47.992;10.158;2023-04-03T11:39:15;20.00;39.40
7234;DHT22;3658;47.992;10.158;2023-04-03T11:41:43;20.00;40.10
7234;DHT22;3658;47.992;10.158;2023-04-03T11:44:33;20.00;39.40
7234;DHT22;3658;47.992;10.158;2023-04-03T11:47:02;20.00;39.50
7234;DHT22;3658;47.992;10.158;2023-04-03T11:49:53;20.00;39.40
7234;DHT22;3658;47.992;10.158;2023-04-03T11:55:44;20.00;39.40
7234;DHT22;3658;47.992;10.158;2023-04-03T11:58:14;20.00;39.40
7234;DHT22;3658;47.992;10.158;2023-04-03T12:01:06;20.00;39.50
7234;DHT22;3658;47.992;10.158;2023-04-03T12:06:51;20.00;39.50
7234;DHT22;3658;47.992;10.158;2023-04-03T12:09:25;20.00;39.50
7234;DHT22;3658;47.992;10.158;2023-04-03T12:11:53;20.00;39.60
7234;DHT22;3658;47.992;10.158;2023-04-03T12:14:23;20.00;39.50
7234;DHT22;3658;47.992;10.158;2023-04-03T12:16:52;20.00;39.60
7234;DHT22;3658;47.992;10.158;2023-04-03T12:19:31;20.00;39.60
7234;DHT22;3658;47.992;10.158;2023-04-03T12:22:15;20.00;39.40
7234;DHT22;3658;47.992;10.158;2023-04-03T12:24:45;20.00;39.70
7234;DHT22;3658;47.992;10.158;2023-04-03T12:27:28;20.00;39.70
7234;DHT22;3658;47.992;10.158;2023-04-03T12:30:05;20.00;39.80
7234;DHT22;3658;47.992;10.158;2023-04-03T12:35:28;20.00;39.90
7234;DHT22;3658;47.992;10.158;2023-04-03T12:38:29;20.00;39.70
7234;DHT22;3658;47.992;10.158;2023-04-03T12:41:21;20.00;39.60
7234;DHT22;3658;47.992;10.158;2023-04-03T12:46:43;20.10;39.70
7234;DHT22;3658;47.992;10.158;2023-04-03T12:49:35;20.00;39.70
7234;DHT22;3658;47.992;10.158;2023-04-03T12:52:06;20.00;39.40
7234;DHT22;3658;47.992;10.158;2023-04-03T12:54:46;19.90;39.50
7234;DHT22;3658;47.992;10.158;2023-04-03T12:57:17;19.80;39.40
7234;DHT22;3658;47.992;10.158;2023-04-03T12:59:44;19.80;39.40
7234;DHT22;3658;47.992;10.158;2023-04-03T13:02:23;19.80;39.40
7234;DHT22;3658;47.992;10.158;2023-04-03T13:04:50;19.80;39.50
7234;DHT22;3658;47.992;10.158;2023-04-03T13:07:27;19.70;39.40
7234;DHT22;3658;47.992;10.158;2023-04-03T13:10:03;19.70;39.40
7234;DHT22;3658;47.992;10.158;2023-04-03T13:12:31;19.70;39.40
7234;DHT22;3658;47.992;10.158;2023-04-03T13:14:59;19.70;39.40
7234;DHT22;3658;47.992;10.158;2023-04-03T13:17:29;19.70;39.40
7234;DHT22;3658;47.992;10.158;2023-04-03T13:20:10;19.70;39.30
7234;DHT22;3658;47.992;10.158;2023-04-03T13:22:40;19.70;39.40
7234;DHT22;3658;47.992;10.158;2023-04-03T13:25:15;19.70;39.30
7234;DHT22;3658;47.992;10.158;2023-04-03T13:27:43;19.70;39.20
7234;DHT22;3658;47.992;10.158;2023-04-03T13:30:25;19.70;39.20
7234;DHT22;3658;47.992;10.158;2023-04-03T13:32:53;19.70;39.10
7234;DHT22;3658;47.992;10.158;2023-04-03T13:35:36;19.70;39.10
7234;DHT22;3658;47.992;10.158;2023-04-03T13:38:07;19.70;39.00
7234;DHT22;3658;47.992;10.158;2023-04-03T13:40:50;19.70;39.00
7234;DHT22;3658;47.992;10.158;2023-04-03T13:43:20;19.70;39.10
7234;DHT22;3658;47.992;10.158;2023-04-03T13:46:03;19.70;39.00
7234;DHT22;3658;47.992;10.158;2023-04-03T13:48:36;19.70;38.90
7234;DHT22;3658;47.992;10.158;2023-04-03T13:51:05;19.70;39.00
7234;DHT22;3658;47.992;10.158;2023-04-03T13:53:40;19.60;38.90
7234;DHT22;3658;47.992;10.158;2023-04-03T13:56:17;19.70;39.20
7234;DHT22;3658;47.992;10.158;2023-04-03T13:58:58;19.60;39.70
7234;DHT22;3658;47.992;10.158;2023-04-03T14:01:35;19.70;40.10
7234;DHT22;3658;47.992;10.158;2023-04-03T14:04:14;19.70;40.00
7234;DHT22;3658;47.992;10.158;2023-04-03T14:06:41;19.80;40.20
7234;DHT22;3658;47.992;10.158;2023-04-03T14:09:08;19.80;40.20
7234;DHT22;3658;47.992;10.158;2023-04-03T14:11:37;19.80;40.20
7234;DHT22;3658;47.992;10.158;2023-04-03T14:14:11;19.80;40.50
7234;DHT22;3658;47.992;10.158;2023-04-03T14:16:41;19.80;40.40
7234;DHT22;3658;47.992;10.158;2023-04-03T14:19:23;19.80;40.30
7234;DHT22;3658;47.992;10.158;2023-04-03T14:21:51;19.80;40.50
7234;DHT22;3658;47.992;10.158;2023-04-03T14:24:20;19.70;40.40
7234;DHT22;3658;47.992;10.158;2023-04-03T14:26:49;19.70;40.40
7234;DHT22;3658;47.992;10.158;2023-04-03T14:29:16;19.80;40.50
7234;DHT22;3658;47.992;10.158;2023-04-03T14:31:45;19.80;40.80
7234;DHT22;3658;47.992;10.158;2023-04-03T14:34:13;19.80;40.70
7234;DHT22;3658;47.992;10.158;2023-04-03T14:36:41;19.90;40.50
7234;DHT22;3658;47.992;10.158;2023-04-03T14:39:11;19.80;40.40
7234;DHT22;3658;47.992;10.158;2023-04-03T14:41:43;19.80;40.60
7234;DHT22;3658;47.992;10.158;2023-04-03T14:44:12;19.80;40.60
7234;DHT22;3658;47.992;10.158;2023-04-03T14:46:41;19.80;40.50
7234;DHT22;3658;47.992;10.158;2023-04-03T14:49:13;19.80;40.20
7234;DHT22;3658;47.992;10.158;2023-04-03T14:51:40;19.80;40.40
7234;DHT22;3658;47.992;10.158;2023-04-03T14:54:12;19.70;40.50
7234;DHT22;3658;47.992;10.158;2023-04-03T14:56:40;19.70;40.50
7234;DHT22;3658;47.992;10.158;2023-04-03T14:59:11;19.70;40.70
7234;DHT22;3658;47.992;10.158;2023-04-03T15:01:39;19.70;40.80
7234;DHT22;3658;47.992;10.158;2023-04-03T15:04:10;19.70;40.70
7234;DHT22;3658;47.992;10.158;2023-04-03T15:06:38;19.80;40.60
7234;DHT22;3658;47.992;10.158;2023-04-03T15:09:08;19.80;41.30
7234;DHT22;3658;47.992;10.158;2023-04-03T15:11:37;19.70;40.60
7234;DHT22;3658;47.992;10.158;2023-04-03T15:14:04;19.70;40.70
7234;DHT22;3658;47.992;10.158;2023-04-03T15:16:31;19.70;40.70
7234;DHT22;3658;47.992;10.158;2023-04-03T15:18:59;19.70;40.70
7234;DHT22;3658;47.992;10.158;2023-04-03T15:21:26;19.80;40.70
7234;DHT22;3658;47.992;10.158;2023-04-03T15:23:53;19.80;40.40
7234;DHT22;3658;47.992;10.158;2023-04-03T15:26:20;19.70;40.50
7234;DHT22;3658;47.992;10.158;2023-04-03T15:28:47;19.80;41.10
7234;DHT22;3658;47.992;10.158;2023-04-03T15:31:14;19.70;40.20
7234;DHT22;3658;47.992;10.158;2023-04-03T15:33:42;19.80;40.30
7234;DHT22;3658;47.992;10.158;2023-04-03T15:36:10;19.70;40.00
7234;DHT22;3658;47.992;10.158;2023-04-03T15:38:37;19.60;39.80
7234;DHT22;3658;47.992;10.158;2023-04-03T15:41:04;19.60;39.90
7234;DHT22;3658;47.992;10.158;2023-04-03T15:43:40;19.60;40.30
7234;DHT22;3658;47.992;10.158;2023-04-03T15:46:07;19.60;40.20
7234;DHT22;3658;47.992;10.158;2023-04-03T15:48:35;19.70;40.20
7234;DHT22;3658;47.992;10.158;2023-04-03T15:51:04;19.70;40.50
7234;DHT22;3658;47.992;10.158;2023-04-03T15:53:37;19.70;40.50
7234;DHT22;3658;47.992;10.158;2023-04-03T15:56:04;19.70;40.50
7234;DHT22;3658;47.992;10.158;2023-04-03T15:58:33;19.70;40.10
7234;DHT22;3658;47.992;10.158;2023-04-03T16:01:00;19.70;39.90
7234;DHT22;3658;47.992;10.158;2023-04-03T16:03:28;19.60;39.90
7234;DHT22;3658;47.992;10.158;2023-04-03T16:05:55;19.60;39.90
7234;DHT22;3658;47.992;10.158;2023-04-03T16:08:23;19.60;39.80
7234;DHT22;3658;47.992;10.158;2023-04-03T16:10:52;19.60;39.80
7234;DHT22;3658;47.992;10.158;2023-04-03T16:13:19;19.60;39.70
7234;DHT22;3658;47.992;10.158;2023-04-03T16:15:46;19.60;39.70
7234;DHT22;3658;47.992;10.158;2023-04-03T16:18:14;19.60;39.70
7234;DHT22;3658;47.992;10.158;2023-04-03T16:20:42;19.50;39.50
7234;DHT22;3658;47.992;10.158;2023-04-03T16:23:09;19.60;39.70